McKinney, TX

3:32 PM CDT on May 05, 2015 (GMT -0500)
Encore Wire Campus | | Change Station
CLOSE
Current Station
Personal Weather Station
Location: McKinney, TX
Elevation: 581 ft
Nearby Weather Stations

Elev 581 ft 33.18 °N, 96.60 °W | Updated 26 seconds ago

Overcast
Overcast
82.7 °F
Feels Like 85 °F
N
7.0
Wind Variable Wind from SSW
Gusts 20.0 mph

Today
High -- | Low -- °F
--% Chance of Precip.
Yesterday
High -- | Low -- °F
Precip. -- in
6:34 AM 8:11 PM
Full, 97% visible
Pressure 29.94 in
Visibility 10.0 miles
Clouds Few 4100 ft
Heat Index 85 °F
Dew Point 66 °F
Humidity 57%
Rainfall 0.00 in
Snow Depth Not available.
UV 10 out of 12
Pollen 6.90 out of 12
Air Quality Not available.
Flu Activity Sporadic
METAR KTKI 051953Z 14016G23KT 10SM FEW041 27/18 A2994 RMK AO2 PK WND 14027/1927 SLP136 T02720178

More Conditions Fewer Conditions

Pressure 29.94 in
Visibility 10.0 miles
Clouds Few 4100 ft
Heat Index 85 °F
Dew Point 66 °F
Humidity 57%
Rainfall 0.00 in
Snow Depth Not available.
UV 10 out of 12
Pollen 6.90 out of 12
Air Quality Not available.
Flu Activity Sporadic
METAR KTKI 051953Z 14016G23KT 10SM FEW041 27/18 A2994 RMK AO2 PK WND 14027/1927 SLP136 T02720178

More Conditions Fewer Conditions

Nowcast | as of 3:05 PM CDT on May 5, 2015

Scattered showers and isolated thunderstorms will occur for much of the afternoon. The strongest thunderstorms...which remain below severe limits...will cross interstatte 20 between Terrell and Van through 5 PM. Winds in these storms will be 15 to 25 mph...with the occasional gust to near 40 mph. Other scattered showers will continue to the west of Interstate 35...especially north of Interstate 20.

×

10-Day Weather Forecast

Almanac

Astronomy

May. 05, 2015 Rise Set
Actual Time
Civil Twilight
Nautical Twilight
Astronomical Twilight
Moon
Length of Visible Light
Length of Day
Tomorrow will be .
, % of the Moon is Illuminated

Today's Extremes

State Highs State Lows

Community

WunderPhotos

Upload Photos

1,818,970 photos uploaded!

WunderBlogs® & News

Nearby

Air Quality

  Air Quality AQ Index Pollutant
Not available.

Snow Depth

Station Depth Elevation

Earthquake Activity

City Distance Mag. Time & Date
Minimum magnitude displayed is 2.5.

Coastal Water Temperatures

Place Temperature

Stations

Nearby Weather Stations

Station Location Temp. Windchill Dew Point Humidity Wind Precip. Elev Updated Type